Time;durP1;ratioP1;P1;durP2;ratioP2;P2;SDS_P1;SDS_P2;PMS_P1;PMS_P2;Temp;Humidity;BMP_temperature;BMP_pressure;BME280_temperature;BME280_humidity;BME280_pressure;Samples;Min_cycle;Max_cycle;Signal;HPM_P1;HPM_P2
2023/02/15 00:01:11;;;;;;;;;72.50;51.50;;;;;7.43;100.00;102475.28;4999082;28;57436;-74
2023/02/15 00:03:36;;;;;;;;;70.25;51.75;;;;;7.42;100.00;102469.94;4998218;28;45437;-74
2023/02/15 00:06:02;;;;;;;;;79.00;56.50;;;;;7.40;100.00;102461.97;5016786;28;45648;-74
2023/02/15 00:08:28;;;;;;;;;84.75;56.50;;;;;7.39;100.00;102464.53;5004884;28;45928;-74
2023/02/15 00:10:53;;;;;;;;;68.50;50.50;;;;;7.39;100.00;102464.53;4998630;28;45862;-75
2023/02/15 00:13:18;;;;;;;;;75.75;54.25;;;;;7.37;100.00;102460.94;5015936;28;54758;-74
2023/02/15 00:15:44;;;;;;;;;70.50;54.25;;;;;7.32;100.00;102453.72;5015827;28;45354;-74
2023/02/15 00:18:09;;;;;;;;;71.25;54.75;;;;;7.30;100.00;102454.47;5015873;28;61149;-74
2023/02/15 00:20:34;;;;;;;;;73.50;54.00;;;;;7.31;100.00;102451.91;5016488;28;46630;-74
2023/02/15 00:23:00;;;;;;;;;71.25;52.75;;;;;7.30;100.00;102454.47;5016379;28;45354;-74
2023/02/15 00:25:25;;;;;;;;;76.00;54.75;;;;;7.26;100.00;102442.00;5016595;28;45587;-75
2023/02/15 00:27:50;;;;;;;;;71.75;55.50;;;;;7.25;100.00;102440.22;5016041;28;59875;-75
2023/02/15 00:30:16;;;;;;;;;74.50;54.00;;;;;7.26;100.00;102437.66;5015904;28;45528;-74
2023/02/15 00:32:41;;;;;;;;;73.25;54.00;;;;;7.22;100.00;102430.44;5017665;28;45417;-74
2023/02/15 00:35:07;;;;;;;;;76.75;54.25;;;;;7.20;100.00;102421.59;5015775;28;52934;-74
2023/02/15 00:37:32;;;;;;;;;76.50;55.25;;;;;7.21;100.00;102431.25;5016271;28;46856;-75
2023/02/15 00:39:58;;;;;;;;;73.50;53.75;;;;;7.20;100.00;102425.94;5015767;28;45338;-74
2023/02/15 00:42:23;;;;;;;;;56.25;43.50;;;;;7.17;100.00;102424.03;5016265;28;45438;-74
2023/02/15 00:44:48;;;;;;;;;70.00;53.25;;;;;7.14;100.00;102422.97;5016518;28;45239;-74
2023/02/15 00:47:14;;;;;;;;;75.25;57.00;;;;;7.13;100.00;102424.69;5015141;28;58685;-74
2023/02/15 00:49:39;;;;;;;;;65.25;50.00;;;;;7.11;100.00;102417.59;5015695;28;56565;-74
2023/02/15 00:52:04;;;;;;;;;68.75;51.75;;;;;7.07;100.00;102419.16;5014835;28;56079;-74
2023/02/15 00:54:30;;;;;;;;;72.75;53.75;;;;;7.07;100.00;102414.78;4998092;28;45337;-75
2023/02/15 00:56:55;;;;;;;;;65.75;51.75;;;;;7.06;100.00;102415.63;5016294;28;46588;-74
2023/02/15 00:59:20;;;;;;;;;71.25;53.75;;;;;7.07;100.00;102424.41;5015637;28;45484;-75
2023/02/15 01:01:46;;;;;;;;;70.25;53.00;;;;;7.06;100.00;102418.25;5014535;28;45258;-75
2023/02/15 01:04:11;;;;;;;;;64.75;49.25;;;;;7.06;100.00;102423.50;5015724;28;47605;-74
2023/02/15 01:06:37;;;;;;;;;68.50;51.50;;;;;7.04;100.00;102413.75;4998457;28;45716;-75
2023/02/15 01:09:02;;;;;;;;;71.00;50.50;;;;;7.03;100.00;102420.75;5016216;28;45310;-75
2023/02/15 01:11:27;;;;;;;;;71.00;54.00;;;;;7.01;100.00;102414.47;5016298;28;45650;-75
2023/02/15 01:13:57;;;;;;;;;66.50;50.00;;;;;7.03;100.00;102410.22;4998807;28;45552;-74
2023/02/15 01:16:24;;;;;;;;;68.75;51.00;;;;;7.00;100.00;102406.53;4998852;28;45517;-74
2023/02/15 01:18:49;;;;;;;;;73.25;51.75;;;;;7.00;100.00;102422.28;4997352;28;45488;-74
2023/02/15 01:21:17;;;;;;;;;71.00;54.75;;;;;7.02;100.00;102411.03;4997711;28;45953;-74
2023/02/15 01:23:43;;;;;;;;;75.50;53.00;;;;;7.00;100.00;102406.53;4998153;28;45457;-74
2023/02/15 01:26:09;;;;;;;;;63.75;52.00;;;;;7.00;100.00;102403.91;5013773;28;46720;-74
2023/02/15 01:28:35;;;;;;;;;76.75;53.75;;;;;7.02;100.00;102418.00;4998084;28;45489;-75
2023/02/15 01:31:05;;;;;;;;;74.50;55.25;;;;;7.01;100.00;102405.72;5012163;28;45407;-74
2023/02/15 01:33:30;;;;;;;;;78.00;53.50;;;;;6.98;100.00;102405.56;5017470;28;45562;-75
2023/02/15 01:35:57;;;;;;;;;74.75;56.00;;;;;6.99;100.00;102403.00;5015000;28;62800;-74
2023/02/15 01:38:22;;;;;;;;;69.25;52.25;;;;;6.99;100.00;102415.25;5012397;28;45499;-74
2023/02/15 01:40:51;;;;;;;;;68.00;54.75;;;;;6.99;100.00;102417.88;4997787;28;57547;-75
2023/02/15 01:43:16;;;;;;;;;64.75;52.75;;;;;6.97;100.00;102415.16;5015382;28;45230;-75
2023/02/15 01:45:44;;;;;;;;;68.25;48.25;;;;;6.97;100.00;102411.63;5015142;28;56796;-76
2023/02/15 01:48:22;;;;;;;;;80.50;55.50;;;;;6.97;100.00;102419.50;4998113;28;46614;-74
2023/02/15 01:50:59;;;;;;;;;74.75;57.25;;;;;6.95;100.00;102416.81;5011720;28;45375;-75
2023/02/15 01:53:39;;;;;;;;;75.75;56.75;;;;;6.92;100.00;102413.09;4997701;28;45533;-74
2023/02/15 01:56:12;;;;;;;;;80.50;55.50;;;;;6.91;100.00;102408.69;4997701;28;46406;-74
2023/02/15 01:58:38;;;;;;;;;79.00;56.50;;;;;6.89;100.00;102408.63;5015313;28;45291;-74
2023/02/15 02:01:04;;;;;;;;;81.25;59.50;;;;;6.87;100.00;102423.41;5015158;28;56612;-73
2023/02/15 02:03:36;;;;;;;;;63.00;44.50;;;;;6.83;100.00;102413.56;4995988;28;45310;-74
2023/02/15 02:06:02;;;;;;;;;81.50;60.50;;;;;6.76;100.00;102399.19;5014060;28;46329;-75
2023/02/15 02:08:27;;;;;;;;;80.75;59.75;;;;;6.73;100.00;102406.94;5015807;28;62470;-74
2023/02/15 02:10:53;;;;;;;;;79.25;59.50;;;;;6.74;100.00;102394.69;4997037;28;45541;-73
2023/02/15 02:13:18;;;;;;;;;81.25;56.25;;;;;6.69;100.00;102397.09;4981096;28;45502;-73
2023/02/15 02:16:09;;;;;;;;;74.25;54.00;;;;;6.70;100.00;102403.22;4996769;28;45534;-74
2023/02/15 02:18:56;;;;;;;;;81.00;61.00;;;;;6.66;100.00;102399.56;4997905;28;45518;-74
2023/02/15 02:21:59;;;;;;;;;83.75;59.25;;;;;6.65;100.00;102397.75;5010172;28;45359;-75
2023/02/15 02:24:26;;;;;;;;;80.75;61.25;;;;;6.62;100.00;102394.97;5015000;28;45410;-74
2023/02/15 02:27:17;;;;;;;;;84.25;60.00;;;;;6.60;100.00;102398.31;5014703;28;46333;-76
2023/02/15 02:30:05;;;;;;;;;82.25;62.00;;;;;6.56;100.00;102389.41;5014424;28;45481;-74
2023/02/15 02:32:49;;;;;;;;;79.75;58.00;;;;;6.55;100.00;102387.56;4999414;28;45442;-74
2023/02/15 02:35:29;;;;;;;;;82.25;57.75;;;;;6.52;100.00;102379.56;5015172;28;45465;-74
2023/02/15 02:38:11;;;;;;;;;85.25;63.50;;;;;6.50;100.00;102387.38;5014019;28;47258;-74
2023/02/15 02:40:48;;;;;;;;;81.00;59.00;;;;;6.50;100.00;102389.09;4996998;28;45490;-74
2023/02/15 02:43:48;;;;;;;;;76.25;59.00;;;;;6.47;100.00;102379.31;4997025;28;45690;-74
2023/02/15 02:46:22;;;;;;;;;83.75;61.00;;;;;6.41;100.00;102371.13;4993051;28;45442;-74
2023/02/15 02:48:48;;;;;;;;;82.00;62.25;;;;;6.43;100.00;102373.81;5012994;28;46025;-75
2023/02/15 02:51:20;;;;;;;;;79.75;58.25;;;;;6.41;100.00;102376.38;4997205;28;45395;-74
2023/02/15 02:53:45;;;;;;;;;78.25;58.50;;;;;6.40;100.00;102369.34;5015183;28;45417;-75
2023/02/15 02:56:36;;;;;;;;;82.25;61.75;;;;;6.40;100.00;102373.69;4996875;28;48051;-74
2023/02/15 02:59:15;;;;;;;;;80.00;57.75;;;;;6.34;100.00;102363.78;4994933;28;48688;-75
2023/02/15 03:01:46;;;;;;;;;78.25;58.25;;;;;6.36;100.00;102372.63;4996182;28;45533;-75
2023/02/15 03:04:17;;;;;;;;;81.50;57.50;;;;;6.34;100.00;102379.50;5013471;28;45575;-74
2023/02/15 03:06:50;;;;;;;;;50.25;38.75;;;;;6.31;100.00;102376.72;4996802;28;45397;-74
2023/02/15 03:09:24;;;;;;;;;78.75;58.50;;;;;6.30;100.00;102381.06;5015951;28;46815;-75
2023/02/15 03:11:50;;;;;;;;;80.00;58.75;;;;;6.29;100.00;102388.88;5014541;28;45553;-74
2023/02/15 03:14:17;;;;;;;;;72.75;55.50;;;;;6.26;100.00;102375.56;5014325;28;46707;-74
2023/02/15 03:16:46;;;;;;;;;89.75;62.75;;;;;6.24;100.00;102387.72;4999673;28;45591;-75
2023/02/15 03:19:15;;;;;;;;;84.25;59.75;;;;;6.23;100.00;102385.88;5016802;28;45443;-74
2023/02/15 03:21:57;;;;;;;;;81.50;60.50;;;;;6.23;100.00;102384.19;5017550;28;45330;-74
2023/02/15 03:24:26;;;;;;;;;73.50;54.25;;;;;6.22;100.00;102390.22;4999411;28;45596;-74
2023/02/15 03:26:51;;;;;;;;;70.75;55.75;;;;;6.23;100.00;102380.63;5017889;28;45544;-73
2023/02/15 03:29:19;;;;;;;;;79.00;58.50;;;;;6.21;100.00;102366.56;5016061;28;45880;-74
2023/02/15 03:31:50;;;;;;;;;83.50;57.00;;;;;6.23;100.00;102375.38;5013028;28;45176;-75
2023/02/15 03:34:17;;;;;;;;;79.00;59.25;;;;;6.21;100.00;102364.81;5016620;28;45301;-73
2023/02/15 03:37:05;;;;;;;;;74.25;57.50;;;;;6.21;100.00;102377.03;5015786;28;45542;-75
2023/02/15 03:39:40;;;;;;;;;74.50;56.25;;;;;6.18;100.00;102367.31;5013481;28;45525;-75
2023/02/15 03:42:12;;;;;;;;;71.75;55.25;;;;;6.20;100.00;102364.75;4999263;28;46207;-76
2023/02/15 03:45:09;;;;;;;;;85.75;59.25;;;;;6.18;100.00;102367.31;5017386;28;45418;-74
2023/02/15 03:47:44;;;;;;;;;81.25;59.50;;;;;6.17;100.00;102365.47;4999438;28;46609;-74
2023/02/15 03:53:03;;;;;;;;;86.25;62.25;;;;;6.13;100.00;102362.63;5001563;28;45398;-75
2023/02/15 03:55:29;;;;;;;;;75.25;57.25;;;;;6.10;100.00;102365.97;4999594;28;45377;-74
2023/02/15 04:03:40;;;;;;;;;76.75;58.50;;;;;6.08;100.00;102380.75;4998743;28;45625;-76
2023/02/15 04:06:06;;;;;;;;;73.25;56.00;;;;;6.03;100.00;102364.75;5015646;28;45413;-74
2023/02/15 04:11:15;;;;;;;;;78.75;59.25;;;;;6.01;100.00;102362.84;5015349;28;45732;-74
2023/02/15 04:13:40;;;;;;;;;69.75;52.50;;;;;6.02;100.00;102362.06;4998337;28;60328;-74
2023/02/15 04:16:06;;;;;;;;;75.25;57.00;;;;;6.02;100.00;102369.94;5015708;28;52909;-74
2023/02/15 04:26:47;;;;;;;;;74.00;56.50;;;;;5.95;100.00;102355.56;5016169;28;45487;-77
2023/02/15 04:29:14;;;;;;;;;82.75;60.00;;;;;5.96;100.00;102354.72;4998864;28;45500;-76
2023/02/15 04:31:39;;;;;;;;;81.00;61.25;;;;;5.95;100.00;102359.91;5000190;28;46521;-74
2023/02/15 04:34:04;;;;;;;;;75.50;54.25;;;;;5.92;100.00;102351.91;5016837;28;52639;-75
2023/02/15 04:36:30;;;;;;;;;75.75;55.50;;;;;5.88;100.00;102361.25;5015839;28;51551;-75
2023/02/15 04:38:55;;;;;;;;;84.75;58.00;;;;;5.81;100.00;102364.38;5016210;28;45240;-74
2023/02/15 04:41:20;;;;;;;;;75.50;55.50;;;;;5.81;100.00;102364.38;5016348;28;46273;-75
2023/02/15 04:43:46;;;;;;;;;78.75;58.75;;;;;5.79;100.00;102366.00;5014927;28;51220;-74
2023/02/15 04:46:11;;;;;;;;;84.00;59.00;;;;;5.76;100.00;102366.75;4997681;28;57613;-75
2023/02/15 04:48:37;;;;;;;;;79.25;56.00;;;;;5.75;100.00;102361.38;5016752;28;45210;-73
2023/02/15 04:51:06;;;;;;;;;77.00;58.00;;;;;5.76;100.00;102368.47;5015898;28;46862;-74
2023/02/15 04:53:32;;;;;;;;;75.75;56.50;;;;;5.74;100.00;102357.88;5015949;28;45306;-74
2023/02/15 04:55:57;;;;;;;;;81.25;58.75;;;;;5.75;100.00;102359.72;5016043;28;45670;-73
2023/02/15 04:58:23;;;;;;;;;77.50;56.50;;;;;5.74;100.00;102352.63;5015852;28;55607;-74
2023/02/15 05:00:48;;;;;;;;;76.75;56.50;;;;;5.71;100.00;102357.72;4997953;28;48713;-76
2023/02/15 05:03:13;;;;;;;;;79.75;60.50;;;;;5.66;100.00;102351.31;5015393;28;60315;-74
2023/02/15 05:05:39;;;;;;;;;76.00;51.00;;;;;5.66;100.00;102358.28;5015515;28;54340;-74
2023/02/15 05:08:04;;;;;;;;;80.00;60.75;;;;;5.65;100.00;102362.63;5020984;28;45433;-74
2023/02/15 05:10:29;;;;;;;;;81.75;60.00;;;;;5.64;100.00;102352.94;5015877;28;63244;-75
2023/02/15 05:12:55;;;;;;;;;79.50;58.25;;;;;5.64;100.00;102368.66;5016102;28;49151;-74
2023/02/15 05:15:20;;;;;;;;;71.50;57.25;;;;;5.64;100.00;102360.81;5016150;28;46695;-74
2023/02/15 05:17:45;;;;;;;;;0.00;0.00;;;;;5.63;100.00;102355.47;4998338;28;45556;-74
2023/02/15 05:20:11;;;;;;;;;77.75;56.50;;;;;5.59;100.00;102354.41;5015779;28;45838;-74
2023/02/15 05:22:36;;;;;;;;;85.50;59.75;;;;;5.61;100.00;102354.50;4998477;28;45291;-77
2023/02/15 05:30:29;;;;;;;;;82.50;59.75;;;;;5.57;100.00;102353.44;4994949;28;45685;-74
2023/02/15 05:32:55;;;;;;;;;79.50;58.75;;;;;5.54;100.00;102350.66;5015016;28;54224;-76
2023/02/15 05:35:20;;;;;;;;;86.75;60.00;;;;;5.54;100.00;102350.66;4991079;28;53592;-75
2023/02/15 05:37:45;;;;;;;;;77.00;52.00;;;;;5.53;100.00;102346.22;4996586;28;50690;-77
2023/02/15 05:40:11;;;;;;;;;73.75;59.00;;;;;5.55;100.00;102346.31;5014742;28;61721;-74
2023/02/15 05:42:36;;;;;;;;;77.00;59.50;;;;;5.52;100.00;102341.78;4997177;28;45373;-74
2023/02/15 05:45:03;;;;;;;;;82.00;60.25;;;;;5.55;100.00;102348.94;4997031;28;56787;-74
2023/02/15 05:47:29;;;;;;;;;79.75;59.00;;;;;5.55;100.00;102346.31;4981361;28;45600;-75
2023/02/15 05:49:54;;;;;;;;;82.50;62.50;;;;;5.56;100.00;102345.50;4996957;28;46795;-76
2023/02/15 05:52:19;;;;;;;;;83.50;58.50;;;;;5.55;100.00;102343.69;4995045;28;58597;-74
2023/02/15 05:54:44;;;;;;;;;79.00;59.25;;;;;5.54;100.00;102345.41;5013968;28;52253;-74
2023/02/15 05:57:10;;;;;;;;;84.75;60.00;;;;;5.55;100.00;102343.69;4997876;28;45518;-75
2023/02/15 05:59:35;;;;;;;;;79.25;57.25;;;;;5.52;100.00;102331.31;4996798;28;59529;-74
2023/02/15 06:02:00;;;;;;;;;81.50;58.75;;;;;5.53;100.00;102330.47;4996664;28;58118;-74
2023/02/15 06:04:26;;;;;;;;;72.00;54.25;;;;;5.53;100.00;102331.38;5013956;28;54149;-74
2023/02/15 06:06:51;;;;;;;;;80.25;59.50;;;;;5.50;100.00;102322.47;4996233;28;45677;-75
2023/02/15 06:09:18;;;;;;;;;84.25;61.25;;;;;5.49;100.00;102324.19;4999688;28;52078;-75
2023/02/15 06:11:44;;;;;;;;;78.25;59.00;;;;;5.50;100.00;102322.47;4980047;28;45507;-74
2023/02/15 06:14:10;;;;;;;;;82.25;58.50;;;;;5.49;100.00;102329.44;5014806;28;45500;-75
2023/02/15 06:16:35;;;;;;;;;84.25;61.50;;;;;5.47;100.00;102324.91;5013331;28;45449;-75
2023/02/15 06:19:01;;;;;;;;;82.75;60.25;;;;;5.45;100.00;102322.22;5015564;28;45874;-75
2023/02/15 06:21:27;;;;;;;;;76.50;58.75;;;;;5.47;100.00;102331.06;5011066;28;46024;-74
2023/02/15 06:23:52;;;;;;;;;78.50;59.00;;;;;5.45;100.00;102330.06;5013832;28;45247;-73
2023/02/15 06:26:18;;;;;;;;;82.25;56.00;;;;;5.45;100.00;102329.19;4995105;28;45455;-74
2023/02/15 06:28:43;;;;;;;;;77.00;57.75;;;;;5.46;100.00;102323.13;4996372;28;47760;-74
2023/02/15 06:31:08;;;;;;;;;85.25;60.25;;;;;5.46;100.00;102337.13;5013961;28;55348;-73
2023/02/15 06:33:34;;;;;;;;;82.75;60.00;;;;;5.45;100.00;102335.31;5013232;28;45907;-74
2023/02/15 06:36:00;;;;;;;;;77.25;55.50;;;;;5.45;100.00;102335.31;4996248;28;45527;-73
2023/02/15 06:38:26;;;;;;;;;81.50;57.75;;;;;5.45;100.00;102337.03;4996147;28;46573;-75
2023/02/15 06:40:51;;;;;;;;;81.00;60.75;;;;;5.45;100.00;102334.41;5013039;28;45503;-74
2023/02/15 06:43:16;;;;;;;;;83.00;58.75;;;;;5.45;100.00;102339.66;5014042;28;46488;-74
2023/02/15 06:45:42;;;;;;;;;82.25;59.00;;;;;5.42;100.00;102335.13;4995429;28;53388;-73
2023/02/15 06:48:07;;;;;;;;;85.75;61.50;;;;;5.43;100.00;102342.19;4995517;28;45560;-74
2023/02/15 06:50:34;;;;;;;;;77.25;59.00;;;;;5.43;100.00;102343.88;4999340;28;45550;-73
2023/02/15 06:52:59;;;;;;;;;79.25;60.50;;;;;5.44;100.00;102341.38;4999900;28;45605;-74
2023/02/15 06:55:25;;;;;;;;;75.75;57.00;;;;;5.43;100.00;102346.50;4983369;28;45423;-75
2023/02/15 06:57:50;;;;;;;;;81.25;59.00;;;;;5.43;100.00;102355.28;5014003;28;45969;-74
2023/02/15 07:00:17;;;;;;;;;78.50;59.75;;;;;5.45;100.00;102366.75;5016676;28;60190;-73
2023/02/15 07:02:43;;;;;;;;;79.50;60.75;;;;;5.46;100.00;102367.66;5017935;28;45749;-73
2023/02/15 07:05:08;;;;;;;;;86.50;62.75;;;;;5.50;100.00;102377.50;5015622;28;45977;-75
2023/02/15 07:07:34;;;;;;;;;77.75;59.00;;;;;5.53;100.00;102378.53;5014465;28;51207;-74
2023/02/15 07:09:59;;;;;;;;;80.50;58.75;;;;;5.56;100.00;102377.84;5013172;28;57869;-74
2023/02/15 07:12:44;;;;;;;;;84.00;63.50;;;;;5.58;100.00;102373.56;4999141;28;45954;-74
2023/02/15 07:15:11;;;;;;;;;85.50;61.00;;;;;5.59;100.00;102361.38;5013891;28;45800;-75
2023/02/15 07:17:36;;;;;;;;;85.50;62.75;;;;;5.61;100.00;102378.09;5015927;28;45796;-75
2023/02/15 07:20:07;;;;;;;;;83.75;60.25;;;;;5.60;100.00;102384.16;5014414;28;45560;-74
2023/02/15 07:22:33;;;;;;;;;78.75;59.50;;;;;5.62;100.00;102372.03;4998784;28;45480;-74
2023/02/15 07:24:59;;;;;;;;;82.75;61.75;;;;;5.56;100.00;102375.22;5018763;28;45632;-74
2023/02/15 07:27:24;;;;;;;;;83.50;61.25;;;;;5.57;100.00;102369.16;5017779;28;45942;-76
2023/02/15 07:29:50;;;;;;;;;80.00;58.75;;;;;5.59;100.00;102383.22;5000745;28;46678;-75
2023/02/15 07:32:15;;;;;;;;;84.75;62.25;;;;;5.58;100.00;102393.63;5016622;28;57244;-74
2023/02/15 07:34:40;;;;;;;;;90.25;61.75;;;;;5.60;100.00;102389.41;5017680;28;52821;-74
2023/02/15 07:37:06;;;;;;;;;80.75;59.75;;;;;5.61;100.00;102384.22;5016049;28;46807;-73
2023/02/15 07:39:31;;;;;;;;;78.50;62.00;;;;;5.69;100.00;102388.16;4996272;28;45501;-74
2023/02/15 07:41:57;;;;;;;;;83.75;62.50;;;;;5.73;100.00;102381.38;5017477;28;45472;-75
2023/02/15 07:44:22;;;;;;;;;87.00;62.50;;;;;5.76;100.00;102382.47;4999782;28;45429;-75
2023/02/15 07:46:47;;;;;;;;;82.00;59.00;;;;;5.81;100.00;102389.69;4997619;28;47595;-73
2023/02/15 07:49:14;;;;;;;;;79.75;61.50;;;;;5.84;100.00;102393.34;4992938;28;45477;-74
2023/02/15 07:51:40;;;;;;;;;79.50;60.75;;;;;5.84;100.00;102382.88;5000099;28;45425;-73
2023/02/15 07:54:06;;;;;;;;;83.25;61.25;;;;;5.88;100.00;102384.84;5013915;28;45573;-73
2023/02/15 07:56:32;;;;;;;;;87.50;64.50;;;;;5.93;100.00;102395.63;5016161;28;45461;-73
2023/02/15 07:58:59;;;;;;;;;84.25;62.25;;;;;5.95;100.00;102384.41;5016024;28;45557;-73
2023/02/15 08:01:29;;;;;;;;;90.75;63.75;;;;;6.04;100.00;102395.41;5012017;28;45551;-73
2023/02/15 08:03:54;;;;;;;;;83.75;61.50;;;;;6.07;100.00;102386.78;5128707;22;45470;-73
2023/02/15 08:06:22;;;;;;;;;83.25;60.00;;;;;6.14;100.00;102395.91;4998509;28;45876;-75
2023/02/15 08:08:47;;;;;;;;;84.50;60.25;;;;;6.17;100.00;102391.69;4995973;28;45477;-74
2023/02/15 08:11:25;;;;;;;;;80.00;60.75;;;;;6.23;100.00;102397.31;4996432;28;45481;-72
2023/02/15 08:14:16;;;;;;;;;88.50;64.00;;;;;6.28;100.00;102403.69;4995406;28;45319;-73
2023/02/15 08:16:42;;;;;;;;;82.75;60.50;;;;;6.34;100.00;102403.13;5002186;28;47726;-76
2023/02/15 08:19:12;;;;;;;;;95.50;68.00;;;;;6.36;100.00;102393.59;5005285;28;45342;-73
2023/02/15 08:21:43;;;;;;;;;103.00;69.25;;;;;6.40;100.00;102390.31;5002706;28;45615;-73
2023/02/15 08:24:09;;;;;;;;;97.75;69.75;;;;;6.42;100.00;102390.41;5004329;28;45538;-74
2023/02/15 08:26:35;;;;;;;;;94.00;67.50;;;;;6.44;100.00;102380.88;4996103;28;45665;-73
2023/02/15 08:29:00;;;;;;;;;92.50;66.50;;;;;6.49;100.00;102390.78;4997532;28;45489;-73
2023/02/15 08:31:27;;;;;;;;;89.00;63.75;;;;;6.50;100.00;102392.63;4999406;28;45509;-74
2023/02/15 08:33:53;;;;;;;;;90.75;65.50;;;;;6.55;100.00;102395.44;5003750;28;45453;-73
2023/02/15 08:36:21;;;;;;;;;92.25;65.50;;;;;6.57;100.00;102393.84;4979488;28;45815;-73
2023/02/15 08:38:47;;;;;;;;;90.50;65.00;;;;;6.62;100.00;102396.69;4990970;28;45700;-75
2023/02/15 08:41:20;;;;;;;;;93.00;63.00;;;;;6.66;100.00;102391.69;5003748;28;45263;-74
2023/02/15 08:43:47;;;;;;;;;83.25;60.75;;;;;6.69;100.00;102391.84;4997751;28;45405;-74
2023/02/15 08:46:14;;;;;;;;;99.00;67.50;;;;;6.71;100.00;102391.91;4986862;28;46056;-73
2023/02/15 08:48:40;;;;;;;;;89.75;67.00;;;;;6.72;100.00;102389.38;5003683;28;45604;-75
2023/02/15 08:51:07;;;;;;;;;81.00;60.25;;;;;6.74;100.00;102392.97;5008912;28;45513;-73
2023/02/15 08:53:32;;;;;;;;;96.75;67.75;;;;;6.77;100.00;102393.16;4998448;28;45560;-75
2023/02/15 08:55:58;;;;;;;;;89.50;66.50;;;;;6.80;100.00;102393.28;5005711;28;54573;-73
2023/02/15 08:58:24;;;;;;;;;89.25;69.75;;;;;6.83;100.00;102390.81;5009881;28;45561;-75
2023/02/15 09:00:50;;;;;;;;;94.00;68.50;;;;;6.90;100.00;102393.75;4996061;28;45300;-74
2023/02/15 09:03:15;;;;;;;;;92.00;65.00;;;;;6.95;100.00;102390.53;4988429;28;45527;-73
2023/02/15 09:05:40;;;;;;;;;89.75;65.50;;;;;6.97;100.00;102380.09;4990955;28;66272;-74
2023/02/15 09:08:05;;;;;;;;;95.25;66.25;;;;;7.04;100.00;102377.88;5016173;28;56255;-73
2023/02/15 09:10:31;;;;;;;;;89.25;65.25;;;;;7.07;100.00;102366.63;5015390;28;48427;-73
2023/02/15 09:12:56;;;;;;;;;91.75;68.00;;;;;7.13;100.00;102364.28;5014187;28;45389;-74
2023/02/15 09:15:22;;;;;;;;;85.00;62.75;;;;;7.16;100.00;102369.72;5001896;28;61256;-75
2023/02/15 09:17:47;;;;;;;;;87.50;62.25;;;;;7.26;100.00;102379.84;5009538;28;53485;-74
2023/02/15 09:20:12;;;;;;;;;82.75;62.75;;;;;7.32;100.00;102374.00;5007440;28;51691;-74
2023/02/15 09:22:38;;;;;;;;;79.75;60.50;;;;;7.39;100.00;102383.06;5008463;28;45292;-74
2023/02/15 09:25:03;;;;;;;;;85.50;60.75;;;;;7.45;100.00;102386.00;4997687;28;45554;-74
2023/02/15 09:27:29;;;;;;;;;79.75;61.75;;;;;7.51;100.00;102394.16;4994325;28;45345;-73
2023/02/15 09:29:54;;;;;;;;;79.00;59.75;;;;;7.60;100.00;102400.78;5003229;28;45332;-74
2023/02/15 09:32:21;;;;;;;;;87.75;62.25;;;;;7.69;100.00;102395.06;4996089;28;56623;-73
2023/02/15 09:34:47;;;;;;;;;88.25;63.25;;;;;7.77;100.00;102385.78;5006144;28;45953;-73
2023/02/15 09:37:12;;;;;;;;;85.00;62.50;;;;;7.87;100.00;102392.41;4994892;28;45352;-74
2023/02/15 09:39:42;;;;;;;;;88.50;64.50;;;;;7.98;100.00;102388.53;5007457;28;45387;-75
2023/02/15 09:42:39;;;;;;;;;90.25;67.00;;;;;8.08;100.00;102398.66;4996810;28;45522;-76
2023/02/15 09:45:05;;;;;;;;;83.50;59.75;;;;;8.22;100.00;102401.03;5006615;28;46179;-73
2023/02/15 09:48:09;;;;;;;;;85.25;64.00;;;;;8.30;100.00;102408.44;5001736;28;45287;-76
2023/02/15 09:50:35;;;;;;;;;94.75;65.25;;;;;8.38;100.00;102399.19;4951499;28;45365;-75
2023/02/15 09:53:12;;;;;;;;;95.50;74.25;;;;;8.50;100.00;102397.94;5003658;28;45494;-73
2023/02/15 09:56:01;;;;;;;;;93.00;69.75;;;;;8.60;100.00;102402.78;5013640;28;45430;-74
2023/02/15 09:58:48;;;;;;;;;92.00;67.00;;;;;8.69;100.00;102397.94;5013785;28;45343;-74
2023/02/15 10:01:19;;;;;;;;;90.25;65.50;;;;;8.82;100.00;102402.00;4996905;28;45171;-74
2023/02/15 10:03:44;;;;;;;;;97.25;69.75;;;;;8.93;100.00;102391.06;5007037;28;45533;-73
2023/02/15 10:06:33;;;;;;;;;93.50;68.75;;;;;9.05;100.00;102403.84;5004163;28;46638;-74
2023/02/15 10:09:06;;;;;;;;;90.75;66.25;;;;;9.17;100.00;102401.75;4994694;28;45460;-73
2023/02/15 10:11:48;;;;;;;;;91.25;65.00;;;;;9.29;100.00;102400.47;5002866;28;45545;-74
2023/02/15 10:14:44;;;;;;;;;91.00;66.75;;;;;9.40;100.00;102405.34;5004347;28;45581;-75
2023/02/15 10:17:25;;;;;;;;;95.50;69.75;;;;;9.52;100.00;102409.31;5005799;28;45583;-74
2023/02/15 10:20:07;;;;;;;;;89.50;63.50;;;;;9.61;100.00;102394.75;5006895;28;45502;-75
2023/02/15 10:22:58;;;;;;;;;89.50;63.50;;;;;9.73;100.00;102396.97;5003094;28;45514;-73
2023/02/15 10:25:29;;;;;;;;;86.50;63.00;;;;;9.80;100.00;102401.69;5006914;28;45371;-77
2023/02/15 10:27:54;;;;;;;;;83.75;62.75;;;;;9.87;100.00;102405.44;5011643;28;45777;-74
2023/02/15 10:30:30;;;;;;;;;86.50;64.00;;;;;9.91;100.00;102404.75;5016401;28;45416;-74
2023/02/15 10:33:08;;;;;;;;;86.50;61.50;;;;;9.99;100.00;102413.84;5001416;28;45678;-74
2023/02/15 10:35:51;;;;;;;;;79.25;61.25;;;;;10.03;100.00;102404.31;5001026;28;45601;-73
2023/02/15 10:38:35;;;;;;;;;88.25;63.50;;;;;10.07;100.00;102412.41;5008424;28;46042;-74
2023/02/15 10:41:18;;;;;;;;;84.00;62.75;;;;;10.09;100.00;102401.91;5013393;28;45461;-76
2023/02/15 10:43:56;;;;;;;;;85.50;63.00;;;;;10.11;100.00;102398.47;5007430;28;45470;-73
2023/02/15 10:46:34;;;;;;;;;85.25;63.25;;;;;10.12;100.00;102391.44;5005018;28;45570;-74
2023/02/15 10:49:12;;;;;;;;;87.75;66.50;;;;;10.12;100.00;102388.78;4997687;28;46835;-74
2023/02/15 10:52:10;;;;;;;;;85.00;60.75;;;;;10.18;100.00;102389.06;5010644;28;45365;-74
2023/02/15 10:55:20;;;;;;;;;86.00;64.00;;;;;10.22;100.00;102381.28;5010042;28;46555;-74
2023/02/15 10:57:59;;;;;;;;;90.00;65.50;;;;;10.30;100.00;102394.81;5012169;28;45392;-74
2023/02/15 11:00:31;;;;;;;;;85.75;61.25;;;;;10.36;100.00;102392.41;4999222;28;45461;-73
2023/02/15 11:03:06;;;;;;;;;84.75;62.50;;;;;10.45;100.00;102397.13;5005560;28;45408;-75
2023/02/15 11:05:37;;;;;;;;;87.25;63.25;;;;;10.52;100.00;102388.56;5005141;28;45402;-74
2023/02/15 11:08:06;;;;;;;;;88.50;65.25;;;;;10.56;100.00;102382.56;5006234;28;45533;-73
2023/02/15 11:10:46;;;;;;;;;87.00;64.75;;;;;10.65;100.00;102388.19;5000051;28;45945;-73
2023/02/15 11:13:16;;;;;;;;;87.75;63.25;;;;;10.74;100.00;102380.56;5005685;28;45533;-74
2023/02/15 11:15:51;;;;;;;;;83.50;61.00;;;;;10.83;100.00;102374.72;5011586;28;45439;-75
2023/02/15 11:18:17;;;;;;;;;84.75;62.00;;;;;10.95;100.00;102382.16;4996260;28;45525;-74
2023/02/15 11:20:45;;;;;;;;;82.50;61.50;;;;;11.06;100.00;102371.94;5001964;28;46900;-75
2023/02/15 11:23:16;;;;;;;;;80.25;58.75;;;;;11.16;100.00;102366.13;5000344;28;45529;-75
2023/02/15 11:25:43;;;;;;;;;73.75;53.00;;;;;11.22;100.00;102355.75;4997366;28;45316;-73
2023/02/15 11:28:20;;;;;;;;;78.50;58.00;;;;;11.31;100.00;102345.47;5000767;28;45576;-71
2023/02/15 11:30:51;;;;;;;;;76.50;56.50;;;;;11.38;100.00;102350.09;4996285;28;45351;-72
2023/02/15 11:33:22;;;;;;;;;74.50;57.50;;;;;11.50;100.00;102361.09;5000878;28;45607;-72
2023/02/15 11:35:52;;;;;;;;;75.00;57.00;;;;;11.66;100.00;102364.19;5007360;28;45541;-73
2023/02/15 11:38:26;;;;;;;;;77.00;56.50;;;;;11.74;100.00;102363.59;4990960;28;45460;-73
2023/02/15 11:40:57;;;;;;;;;81.25;60.50;;;;;11.86;100.00;102368.38;4989347;28;45670;-71
2023/02/15 11:43:30;;;;;;;;;80.75;58.50;;;;;11.88;100.00;102344.59;5012680;28;45529;-72
2023/02/15 11:45:56;;;;;;;;;79.75;59.00;;;;;12.02;100.00;102353.88;5050503;22;45494;-72